createdAt,value
2019-03-12T00:00:40.705Z,29.3
2019-03-12T00:01:30.497Z,29.1
2019-03-12T00:02:20.335Z,29.1
2019-03-12T00:03:10.082Z,28.9
2019-03-12T00:03:59.588Z,28.8
2019-03-12T00:04:49.912Z,28.7
2019-03-12T00:05:39.511Z,28.6
2019-03-12T00:06:29.910Z,27.9
2019-03-12T00:07:20.643Z,27.1
2019-03-12T00:08:09.572Z,26.7
2019-03-12T00:09:00.668Z,26.4
2019-03-12T00:09:50.037Z,26.3
2019-03-12T00:10:40.601Z,26.1
2019-03-12T00:11:30.937Z,26.1
2019-03-12T00:12:20.347Z,25.9
2019-03-12T00:13:10.814Z,25.8
2019-03-12T00:14:01.109Z,25.8
2019-03-12T00:14:51.416Z,25.6
2019-03-12T00:15:41.227Z,25.5
2019-03-12T00:16:31.125Z,25.5
2019-03-12T00:17:20.496Z,25.5
2019-03-12T00:18:11.231Z,25.4
2019-03-12T00:19:00.392Z,25.4
2019-03-12T00:19:50.686Z,25.3
2019-03-12T00:20:40.803Z,25.2
2019-03-12T00:21:31.934Z,25.1
2019-03-12T00:22:20.879Z,25.1
2019-03-12T00:23:11.561Z,24.9
2019-03-12T00:24:01.571Z,24.8
2019-03-12T00:24:51.613Z,24.8
2019-03-12T00:25:41.982Z,24.7
2019-03-12T00:26:31.471Z,24.8
2019-03-12T00:27:21.806Z,25
2019-03-12T00:28:11.866Z,25.3
2019-03-12T00:29:01.931Z,25.6
2019-03-12T00:29:52.617Z,25.9
2019-03-12T00:30:41.853Z,26.3
2019-03-12T00:31:32.261Z,26.6
2019-03-12T00:32:22.435Z,26.9
2019-03-12T00:33:12.906Z,27.2
2019-03-12T00:34:02.275Z,27.4
2019-03-12T00:34:52.611Z,27.6
2019-03-12T00:35:42.480Z,27.6
2019-03-12T00:36:32.723Z,27.4
2019-03-12T00:37:22.540Z,26.8
2019-03-12T00:38:12.083Z,25.9
2019-03-12T00:39:03.186Z,25
2019-03-12T00:39:53.266Z,24.6
2019-03-12T00:40:43.159Z,24.7
2019-03-12T00:41:33.430Z,25.3
2019-03-12T00:42:22.328Z,25.8
2019-03-12T00:43:12.648Z,26.2
2019-03-12T00:44:02.550Z,26.4
2019-03-12T00:44:52.615Z,26.8
2019-03-12T00:45:43.736Z,27.1
2019-03-12T00:46:35.990Z,27.4
2019-03-12T00:47:22.700Z,27.8
2019-03-12T00:48:13.017Z,28.1
2019-03-12T00:49:03.127Z,28.3
2019-03-12T00:49:53.422Z,28.6
2019-03-12T00:50:43.481Z,28.9
2019-03-12T00:51:33.589Z,29.1
2019-03-12T00:53:13.690Z,29.6
2019-03-12T00:54:03.217Z,29.7
2019-03-12T00:54:53.499Z,29.6
2019-03-12T00:55:44.142Z,29.6
2019-03-12T00:56:33.462Z,29.5
2019-03-12T00:57:23.959Z,29.4
2019-03-12T00:58:14.354Z,29.3
2019-03-12T00:59:03.342Z,29.1
2019-03-12T00:59:57.344Z,29
2019-03-12T01:00:43.401Z,28.9
2019-03-12T01:01:34.289Z,28.8
2019-03-12T01:02:24.639Z,28.6
2019-03-12T01:03:14.003Z,28.6
2019-03-12T01:04:04.794Z,27.4
2019-03-12T01:04:54.546Z,26.9
2019-03-12T01:05:44.304Z,26.6
2019-03-12T01:06:35.231Z,26.4
2019-03-12T01:07:25.024Z,26.2
2019-03-12T01:08:14.483Z,26.1
2019-03-12T01:09:05.186Z,26
2019-03-12T01:09:54.106Z,25.9
2019-03-12T01:10:45.907Z,25.8
2019-03-12T01:11:35.314Z,25.7
2019-03-12T01:12:25.126Z,25.6
2019-03-12T01:13:14.931Z,25.5
2019-03-12T01:14:05.491Z,25.5
2019-03-12T01:14:55.216Z,25.5
2019-03-12T01:15:45.911Z,25.4
2019-03-12T01:16:34.765Z,25.3
2019-03-12T01:17:25.965Z,25.3
2019-03-12T01:18:18.486Z,25.1
2019-03-12T01:19:06.207Z,25.1
2019-03-12T01:19:56.441Z,25
2019-03-12T01:20:45.239Z,24.9
2019-03-12T01:21:36.025Z,24.8
2019-03-12T01:22:26.138Z,24.7
2019-03-12T01:23:15.008Z,24.7
2019-03-12T01:24:06.345Z,24.9
2019-03-12T01:24:56.271Z,25.3
2019-03-12T01:25:45.677Z,25.5
2019-03-12T01:26:35.560Z,25.8
2019-03-12T01:27:26.725Z,26.2
2019-03-12T01:28:17.044Z,26.4
2019-03-12T01:29:06.564Z,26.8
2019-03-12T01:29:56.916Z,27.1
2019-03-12T01:30:46.715Z,27.4
2019-03-12T01:31:36.990Z,27.6
2019-03-12T01:32:26.827Z,27.9
2019-03-12T01:33:16.278Z,28.2
2019-03-12T01:34:06.418Z,28.4
2019-03-12T01:34:56.126Z,28.6
2019-03-12T01:35:47.060Z,28.8
2019-03-12T01:36:36.865Z,28.9
2019-03-12T01:37:26.992Z,29.2
2019-03-12T01:38:17.495Z,29.3
2019-03-12T01:39:05.894Z,29.5
2019-03-12T01:39:57.027Z,29.6
2019-03-12T01:40:47.189Z,29.6
2019-03-12T01:41:36.057Z,29.5
2019-03-12T01:42:27.661Z,29.4
2019-03-12T01:43:16.791Z,29.3
2019-03-12T01:44:07.355Z,29.2
2019-03-12T01:44:56.886Z,29.1
2019-03-12T01:45:47.754Z,28.9
2019-03-12T01:46:37.331Z,28.8
2019-03-12T01:47:27.984Z,28.7
2019-03-12T01:48:17.181Z,28.6
2019-03-12T01:49:06.638Z,28.4
2019-03-12T01:49:58.031Z,27.3
2019-03-12T01:50:48.424Z,26.8
2019-03-12T01:51:39.534Z,26.6
2019-03-12T01:52:28.293Z,26.4
2019-03-12T01:53:17.759Z,26.2
2019-03-12T01:54:07.853Z,26.1
2019-03-12T01:54:57.722Z,26
2019-03-12T01:55:48.801Z,25.9
2019-03-12T01:56:38.306Z,25.8
2019-03-12T01:57:28.964Z,25.7
2019-03-12T01:58:22.430Z,25.6
2019-03-12T01:59:07.625Z,25.5
2019-03-12T01:59:58.561Z,25.5
2019-03-12T02:00:48.333Z,25.5
2019-03-12T02:01:38.651Z,25.4
2019-03-12T02:02:28.406Z,25.3
2019-03-12T02:03:19.438Z,25.3
2019-03-12T02:04:09.028Z,25.2
2019-03-12T02:04:58.334Z,25.1
2019-03-12T02:05:48.936Z,25
2019-03-12T02:06:39.016Z,24.9
2019-03-12T02:07:29.685Z,24.8
2019-03-12T02:08:18.855Z,24.8
2019-03-12T02:09:09.799Z,24.7
2019-03-12T02:09:59.535Z,25
2019-03-12T02:10:49.645Z,25.2
2019-03-12T02:11:38.621Z,25.5
2019-03-12T02:12:29.132Z,25.8
2019-03-12T02:13:20.010Z,26.1
2019-03-12T02:14:09.538Z,26.4
2019-03-12T02:14:59.907Z,26.7
2019-03-12T02:15:49.687Z,27.1
2019-03-12T02:16:42.742Z,27.3
2019-03-12T02:17:29.267Z,27.6
2019-03-12T02:18:20.110Z,27.9
2019-03-12T02:19:10.509Z,28.1
2019-03-12T02:19:59.780Z,28.4
2019-03-12T02:20:50.579Z,28.6
2019-03-12T02:21:40.085Z,28.8
2019-03-12T02:22:29.880Z,28.9
2019-03-12T02:23:19.092Z,29.1
2019-03-12T02:24:09.747Z,29.3
2019-03-12T02:25:02.373Z,29.4
2019-03-12T02:25:50.095Z,29.6
2019-03-12T02:26:39.896Z,29.6
2019-03-12T02:27:30.777Z,29.5
2019-03-12T02:28:20.832Z,29.4
2019-03-12T02:29:11.497Z,29.3
2019-03-12T02:30:00.650Z,29.1
2019-03-12T02:30:51.286Z,29.1
2019-03-12T02:31:40.635Z,28.9
2019-03-12T02:32:30.680Z,28.8
2019-03-12T02:33:19.879Z,28.7
2019-03-12T02:34:11.999Z,28.6
2019-03-12T02:35:01.204Z,28.1
2019-03-12T02:35:51.257Z,27.2
2019-03-12T02:36:40.522Z,26.8
2019-03-12T02:37:31.482Z,26.5
2019-03-12T02:38:21.976Z,26.3
2019-03-12T02:39:11.174Z,26.2
2019-03-12T02:40:01.730Z,26.1
2019-03-12T02:40:50.591Z,25.9
2019-03-12T02:41:42.030Z,25.9
2019-03-12T02:42:31.440Z,25.8
2019-03-12T02:43:22.204Z,25.6
2019-03-12T02:44:11.378Z,25.6
2019-03-12T02:45:02.714Z,25.5
2019-03-12T02:45:52.053Z,25.5
2019-03-12T02:46:42.812Z,25.5
2019-03-12T02:47:32.442Z,25.4
2019-03-12T02:48:22.539Z,25.3
2019-03-12T02:49:18.031Z,25.3
2019-03-12T02:50:02.218Z,25.1
2019-03-12T02:50:51.463Z,25.1
2019-03-12T02:51:42.356Z,25
2019-03-12T02:52:32.833Z,24.9
2019-03-12T02:53:22.533Z,24.8
2019-03-12T02:54:12.186Z,24.7
2019-03-12T02:55:02.743Z,24.8
2019-03-12T02:55:52.450Z,25.1
2019-03-12T02:56:41.629Z,25.4
2019-03-12T02:57:33.356Z,25.6
2019-03-12T02:58:23.138Z,25.9
2019-03-12T02:59:13.281Z,26.3
2019-03-12T03:00:02.776Z,26.5
2019-03-12T03:00:52.507Z,26.8
2019-03-12T03:01:43.008Z,27.1
2019-03-12T03:02:33.440Z,27.4
2019-03-12T03:03:23.490Z,27.7
2019-03-12T03:04:13.817Z,27.9
2019-03-12T03:07:42.885Z,28.8
2019-03-12T03:08:34.932Z,29
2019-03-12T03:09:24.209Z,29.1
2019-03-12T03:10:13.785Z,29.3
2019-03-12T03:11:04.253Z,29.4
2019-03-12T03:11:57.840Z,29.6
2019-03-12T03:12:44.622Z,29.6
2019-03-12T03:13:33.975Z,29.3
2019-03-12T03:14:24.066Z,29.1
2019-03-12T03:15:14.783Z,28.8
2019-03-12T03:16:05.510Z,28
2019-03-12T03:16:54.334Z,27.3
2019-03-12T03:17:45.269Z,26.3
2019-03-12T03:18:35.146Z,25.3
2019-03-12T03:19:24.746Z,24.9
2019-03-12T03:20:14.676Z,25
2019-03-12T03:21:04.797Z,25.6
2019-03-12T03:21:53.898Z,26.1
2019-03-12T03:22:45.499Z,26.5
2019-03-12T03:23:35.496Z,26.9
2019-03-12T03:24:25.606Z,27.1
2019-03-12T03:25:15.277Z,27.5
2019-03-12T03:26:55.281Z,28.1
2019-03-12T03:27:45.159Z,28.4
2019-03-12T03:28:35.605Z,28.8
2019-03-12T03:29:25.537Z,28.9
2019-03-12T03:30:16.039Z,29.2
2019-03-12T03:31:06.571Z,29.4
2019-03-12T03:31:55.459Z,29.6
2019-03-12T03:32:45.628Z,29.7
2019-03-12T03:33:36.335Z,29.6
2019-03-12T03:34:36.131Z,29.5
2019-03-12T03:35:16.024Z,29.4
2019-03-12T03:36:06.198Z,29.3
2019-03-12T03:36:56.334Z,29.2
2019-03-12T03:37:46.133Z,29.1
2019-03-12T03:38:36.498Z,28.9
2019-03-12T03:39:26.206Z,28.8
2019-03-12T03:40:16.097Z,28.7
2019-03-12T03:41:06.279Z,28.6
2019-03-12T03:41:56.536Z,27.6
2019-03-12T03:42:46.385Z,27.1
2019-03-12T03:43:37.168Z,26.8
2019-03-12T03:44:27.016Z,26.5
2019-03-12T03:45:17.307Z,26.3
2019-03-12T03:46:07.431Z,26.3
2019-03-12T03:46:57.101Z,26.1
2019-03-12T03:47:47.262Z,26
2019-03-12T03:48:37.631Z,25.9
2019-03-12T03:49:27.119Z,25.8
2019-03-12T03:50:17.410Z,25.7
2019-03-12T03:51:07.512Z,25.6
2019-03-12T03:51:57.430Z,25.5
2019-03-12T03:52:47.792Z,25.6
2019-03-12T03:53:37.444Z,25.5
2019-03-12T03:54:27.273Z,25.4
2019-03-12T03:55:17.012Z,25.3
2019-03-12T03:56:08.177Z,25.3
2019-03-12T03:56:58.084Z,25.1
2019-03-12T03:57:48.008Z,25.1
2019-03-12T03:58:37.183Z,24.9
2019-03-12T03:59:28.125Z,24.9
2019-03-12T04:00:18.030Z,24.8
2019-03-12T04:01:07.553Z,24.7
2019-03-12T04:01:58.028Z,24.8
2019-03-12T04:02:48.913Z,25.1
2019-03-12T04:03:38.424Z,25.4
2019-03-12T04:04:28.815Z,25.7
2019-03-12T04:05:18.766Z,26
2019-03-12T04:06:08.173Z,26.3
2019-03-12T04:06:58.405Z,26.6
2019-03-12T04:07:47.647Z,26.9
2019-03-12T04:08:38.146Z,27.3
2019-03-12T04:09:28.483Z,27.6
2019-03-12T04:11:08.884Z,28.1
2019-03-12T04:11:58.303Z,28.3
2019-03-12T04:12:48.693Z,28.6
2019-03-12T04:13:39.136Z,28.8
2019-03-12T04:14:28.493Z,29
2019-03-12T04:15:19.128Z,29.2
2019-03-12T04:16:09.779Z,29.4
2019-03-12T04:16:59.297Z,29.6
2019-03-12T04:17:49.345Z,29.7
2019-03-12T04:18:39.457Z,29.6
2019-03-12T04:19:29.664Z,29.6
2019-03-12T04:20:19.184Z,29.4
2019-03-12T04:21:09.093Z,29.3
2019-03-12T04:21:59.881Z,29.2
2019-03-12T04:22:49.560Z,29.1
2019-03-12T04:23:39.367Z,28.9
2019-03-12T04:24:29.810Z,28.8
2019-03-12T04:25:33.886Z,28.7
2019-03-12T04:26:10.250Z,28.6
2019-03-12T04:26:59.726Z,28.4
2019-03-12T04:27:49.946Z,27.4
2019-03-12T04:28:39.868Z,26.9
2019-03-12T04:29:30.696Z,26.6
2019-03-12T04:30:19.623Z,26.4
2019-03-12T04:31:10.885Z,26.3
2019-03-12T04:32:00.890Z,26.1
2019-03-12T04:32:49.827Z,26
2019-03-12T04:33:40.470Z,25.9
2019-03-12T04:34:30.171Z,25.8
2019-03-12T04:35:20.202Z,25.7
2019-03-12T04:36:10.352Z,25.6
2019-03-12T04:37:01.100Z,25.5
2019-03-12T04:37:50.722Z,25.4
2019-03-12T04:38:40.808Z,25.5
2019-03-12T04:39:30.211Z,25.4
2019-03-12T04:40:20.805Z,25.3
2019-03-12T04:41:10.944Z,25.3
2019-03-12T04:41:59.827Z,25.2
2019-03-12T04:42:50.410Z,25.1
2019-03-12T04:43:40.842Z,25
2019-03-12T04:44:31.267Z,24.9
2019-03-12T04:45:21.094Z,24.8
2019-03-12T04:46:11.017Z,24.8
2019-03-12T04:47:00.902Z,24.7
2019-03-12T04:47:50.946Z,25
2019-03-12T04:48:41.668Z,25.3
2019-03-12T04:49:30.781Z,25.6
2019-03-12T04:50:20.813Z,25.8
2019-03-12T04:51:11.310Z,26.2
2019-03-12T04:52:02.102Z,26.4
2019-03-12T04:52:51.494Z,26.8
2019-03-12T04:53:45.620Z,27.1
2019-03-12T04:54:31.674Z,27.4
2019-03-12T04:55:20.691Z,27.7
2019-03-12T04:56:12.253Z,27.9
2019-03-12T04:57:02.033Z,28.2
2019-03-12T04:57:51.948Z,28.4
2019-03-12T04:58:42.124Z,28.7
2019-03-12T04:59:31.698Z,28.9
2019-03-12T05:00:22.028Z,29.1
2019-03-12T05:01:12.075Z,29.3
2019-03-12T05:02:02.497Z,29.4
2019-03-12T05:02:51.983Z,29.6
2019-03-12T05:03:41.961Z,29.7
2019-03-12T05:04:32.605Z,29.6
2019-03-12T05:05:22.719Z,29.5
2019-03-12T05:06:12.428Z,29.4
2019-03-12T05:07:02.183Z,29.3
2019-03-12T05:07:52.535Z,29.1
2019-03-12T05:08:42.588Z,29
2019-03-12T05:09:32.218Z,28.9
2019-03-12T05:10:22.912Z,28.8
2019-03-12T05:11:13.151Z,28.6
2019-03-12T05:12:02.615Z,28.5
2019-03-12T05:12:52.645Z,28.4
2019-03-12T05:13:42.465Z,27.3
2019-03-12T05:14:33.045Z,26.8
2019-03-12T05:15:23.230Z,26.5
2019-03-12T05:16:12.862Z,26.3
2019-03-12T05:17:02.757Z,26.2
2019-03-12T05:17:52.850Z,26.1
2019-03-12T05:18:43.302Z,25.9
2019-03-12T05:19:33.430Z,25.8
2019-03-12T05:20:23.734Z,25.7
2019-03-12T05:21:12.962Z,25.6
2019-03-12T05:22:03.025Z,25.5
2019-03-12T05:22:54.071Z,25.4
2019-03-12T05:23:43.682Z,25.4
2019-03-12T05:24:34.039Z,25.4
2019-03-12T05:25:24.099Z,25.4
2019-03-12T05:26:13.634Z,25.3
2019-03-12T05:27:04.484Z,25.2
2019-03-12T05:27:53.269Z,25.1
2019-03-12T05:28:43.819Z,25
2019-03-12T05:29:33.821Z,24.9
2019-03-12T05:30:24.505Z,24.8
2019-03-12T05:31:14.799Z,24.7
2019-03-12T05:32:04.354Z,24.6
2019-03-12T05:32:54.271Z,24.8
2019-03-12T05:33:43.854Z,25.1
2019-03-12T05:34:34.519Z,25.4
2019-03-12T05:35:24.054Z,25.7
2019-03-12T05:36:14.895Z,26
2019-03-12T05:37:04.436Z,26.3
2019-03-12T05:37:55.058Z,26.6
2019-03-12T05:38:45.420Z,26.9
2019-03-12T05:39:35.174Z,27.2
2019-03-12T05:40:23.591Z,27.5
2019-03-12T05:41:17.986Z,27.8
2019-03-12T05:42:05.064Z,28
2019-03-12T05:42:54.781Z,28.3
2019-03-12T05:43:44.808Z,28.4
2019-03-12T05:44:35.204Z,28.7
2019-03-12T05:45:25.351Z,28.8
2019-03-12T05:46:15.941Z,29.1
2019-03-12T05:47:09.546Z,29.2
2019-03-12T05:47:55.676Z,29.4
2019-03-12T05:48:46.093Z,29.5
2019-03-12T05:49:35.284Z,29.6
2019-03-12T05:50:25.540Z,29.5
2019-03-12T05:51:15.660Z,29.4
2019-03-12T05:52:05.105Z,29.3
2019-03-12T05:52:57.850Z,29.3
2019-03-12T05:53:46.405Z,29.1
2019-03-12T05:54:36.036Z,28.9
2019-03-12T05:55:26.377Z,28.8
2019-03-12T05:56:16.273Z,28.8
2019-03-12T05:57:06.108Z,28.6
2019-03-12T05:57:56.666Z,28.4
2019-03-12T05:58:46.194Z,28.1
2019-03-12T05:59:36.415Z,27.2
2019-03-12T06:00:26.188Z,26.8
2019-03-12T06:01:16.107Z,26.5
2019-03-12T06:02:06.215Z,26.3
2019-03-12T06:02:56.532Z,26.1
2019-03-12T06:05:43.014Z,25.8
2019-03-12T06:06:33.858Z,25.7
2019-03-12T06:07:23.442Z,25.6
2019-03-12T06:08:14.537Z,25.4
2019-03-12T06:09:04.339Z,25.4
2019-03-12T06:09:54.022Z,25.4
2019-03-12T06:10:44.357Z,25.4
2019-03-12T06:11:33.919Z,25.3
2019-03-12T06:12:24.735Z,25.3
2019-03-12T06:13:14.337Z,25.2
2019-03-12T06:14:04.669Z,25.1
2019-03-12T06:14:54.657Z,25
2019-03-12T06:15:43.957Z,24.9
2019-03-12T06:16:34.219Z,24.8
2019-03-12T06:17:24.921Z,24.8
2019-03-12T06:18:14.555Z,24.6
2019-03-12T06:19:04.479Z,24.9
2019-03-12T06:19:54.161Z,25.1
2019-03-12T06:20:44.844Z,25.4
2019-03-12T06:21:34.851Z,25.8
2019-03-12T06:22:25.234Z,26.1
2019-03-12T06:23:17.712Z,26.4
2019-03-12T06:24:05.912Z,26.6
2019-03-12T06:24:55.379Z,26.9
2019-03-12T06:25:44.369Z,27.2
2019-03-12T06:26:34.901Z,27.4
2019-03-12T06:27:26.383Z,27.6
2019-03-12T06:28:15.292Z,27.6
2019-03-12T06:29:04.846Z,27.3
2019-03-12T06:29:54.991Z,26.8
2019-03-12T06:30:45.768Z,26.2
2019-03-12T06:31:35.824Z,25.5
2019-03-12T06:32:25.528Z,24.6
2019-03-12T06:33:14.940Z,23.8
2019-03-12T06:34:05.556Z,23.3
2019-03-12T06:34:55.906Z,23.4
2019-03-12T06:35:44.670Z,24.1
2019-03-12T06:36:35.718Z,24.9
2019-03-12T06:37:25.015Z,25.5
2019-03-12T06:38:15.615Z,25.9
2019-03-12T06:39:05.615Z,26.2
2019-03-12T06:39:55.999Z,26.5
2019-03-12T06:40:46.148Z,26.9
2019-03-12T06:41:36.005Z,27.3
2019-03-12T06:42:26.998Z,27.6
2019-03-12T06:44:06.577Z,28.1
2019-03-12T06:44:56.842Z,28.4
2019-03-12T06:45:47.440Z,28.6
2019-03-12T06:46:36.180Z,28.8
2019-03-12T06:47:25.404Z,29
2019-03-12T06:48:16.250Z,29.3
2019-03-12T06:49:06.901Z,29.4
2019-03-12T06:49:57.057Z,29.6
2019-03-12T06:50:46.754Z,29.6
2019-03-12T06:51:35.712Z,29.6
2019-03-12T06:52:26.880Z,29.4
2019-03-12T06:53:16.664Z,29.3
2019-03-12T06:54:07.797Z,29.2
2019-03-12T06:54:57.539Z,29.1
2019-03-12T06:55:49.565Z,28.9
2019-03-12T06:56:36.835Z,28.8
2019-03-12T06:57:26.677Z,28.8
2019-03-12T06:58:17.809Z,28.6
2019-03-12T06:59:06.616Z,28.4
2019-03-12T06:59:57.102Z,28.4
2019-03-12T07:00:47.187Z,27.3
2019-03-12T07:01:37.605Z,26.7
2019-03-12T07:02:28.699Z,26.4
2019-03-12T07:03:18.467Z,26.2
2019-03-12T07:05:42.884Z,25.8
2019-03-12T07:06:33.769Z,25.7
2019-03-12T07:07:26.041Z,25.6
2019-03-12T07:08:15.354Z,25.5
2019-03-12T07:09:04.604Z,25.4
2019-03-12T07:09:54.424Z,25.3
2019-03-12T07:10:44.002Z,25.3
2019-03-12T07:11:34.136Z,25.3
2019-03-12T07:12:24.409Z,25.3
2019-03-12T07:13:14.561Z,25.2
2019-03-12T07:14:04.806Z,25.1
2019-03-12T07:14:54.063Z,25
2019-03-12T07:15:44.774Z,24.9
2019-03-12T07:16:34.721Z,24.8
2019-03-12T07:17:24.541Z,24.8
2019-03-12T07:18:14.291Z,24.6
2019-03-12T07:19:04.408Z,24.6
2019-03-12T07:19:55.490Z,24.5
2019-03-12T07:20:45.288Z,24.4
2019-03-12T07:21:35.353Z,24.6
2019-03-12T07:22:24.843Z,24.6
2019-03-12T07:23:15.240Z,24.6
2019-03-12T07:24:05.515Z,24.5
2019-03-12T07:25:09.490Z,24.4
2019-03-12T07:25:45.354Z,24.3
2019-03-12T07:26:34.950Z,24.3
2019-03-12T07:27:25.243Z,24.2
2019-03-12T07:28:13.970Z,24.1
2019-03-12T07:29:05.455Z,24.1
2019-03-12T07:29:55.763Z,23.9
2019-03-12T07:30:45.479Z,23.9
2019-03-12T07:31:36.726Z,24
2019-03-12T07:32:25.825Z,24.1
2019-03-12T07:33:15.830Z,24.1
2019-03-12T07:34:05.983Z,24.1
2019-03-12T07:34:56.268Z,24
2019-03-12T07:35:46.105Z,23.9
2019-03-12T07:36:36.138Z,23.9
2019-03-12T07:37:26.184Z,23.8
2019-03-12T07:38:16.258Z,23.7
2019-03-12T07:39:06.554Z,23.6
2019-03-12T07:39:55.074Z,23.6
2019-03-12T07:40:45.677Z,23.4
2019-03-12T07:41:42.245Z,23.5
2019-03-12T07:42:25.737Z,23.8
2019-03-12T07:43:16.217Z,24
2019-03-12T07:44:06.442Z,24.6
2019-03-12T07:44:56.745Z,25.4
2019-03-12T07:45:49.977Z,25.8
2019-03-12T07:46:37.016Z,26.1
2019-03-12T07:47:44.652Z,26.4
2019-03-12T07:48:31.442Z,26.7
2019-03-12T07:49:06.587Z,26.9
2019-03-12T07:49:56.484Z,27.1
2019-03-12T07:50:46.501Z,27.4
2019-03-12T07:51:35.768Z,27.7
2019-03-12T07:52:26.259Z,27.9
2019-03-12T07:53:16.334Z,28.2
2019-03-12T07:54:09.558Z,28.4
2019-03-12T07:54:56.982Z,28.6
2019-03-12T07:55:47.676Z,28.5
2019-03-12T07:56:37.891Z,28.4
2019-03-12T07:57:27.676Z,28.3
2019-03-12T07:58:18.073Z,28.2
2019-03-12T07:59:10.868Z,28.1
2019-03-12T07:59:57.354Z,27.9
2019-03-12T08:00:48.134Z,27.9
2019-03-12T08:01:38.239Z,27.8
2019-03-12T08:02:26.885Z,27.6
2019-03-12T08:03:18.583Z,27.5
2019-03-12T08:04:08.183Z,27.4
2019-03-12T08:04:57.631Z,26.8
2019-03-12T08:05:48.572Z,26.4
2019-03-12T08:06:37.995Z,26.2
2019-03-12T08:07:27.709Z,26
2019-03-12T08:08:17.095Z,25.9
2019-03-12T08:09:08.575Z,25.8
2019-03-12T08:09:57.751Z,25.6
2019-03-12T08:10:48.933Z,25.6
2019-03-12T08:11:38.616Z,25.4
2019-03-12T08:12:29.018Z,25.4
2019-03-12T08:13:19.083Z,25.3
2019-03-12T08:14:07.825Z,25.2
2019-03-12T08:14:58.924Z,25.1
2019-03-12T08:15:51.370Z,25.3
2019-03-12T08:16:38.270Z,25.3
2019-03-12T08:17:28.070Z,25.3
2019-03-12T08:18:17.635Z,25.2
2019-03-12T08:19:08.454Z,25.1
2019-03-12T08:19:58.825Z,25
2019-03-12T08:20:48.647Z,24.9
2019-03-12T08:21:38.664Z,24.8
2019-03-12T08:22:28.195Z,24.8
2019-03-12T08:23:19.069Z,24.7
2019-03-12T08:24:09.394Z,24.6
2019-03-12T08:24:59.432Z,24.4
2019-03-12T08:25:53.404Z,24.6
2019-03-12T08:26:39.942Z,24.6
2019-03-12T08:27:32.380Z,24.6
2019-03-12T08:28:19.852Z,24.6
2019-03-12T08:29:59.757Z,24.4
2019-03-12T08:30:49.597Z,24.3
2019-03-12T08:31:39.819Z,24.3
2019-03-12T08:32:33.022Z,24.1
2019-03-12T08:33:19.021Z,24.1
2019-03-12T08:34:09.994Z,24
2019-03-12T08:35:00.987Z,23.9
2019-03-12T08:35:50.261Z,23.8
2019-03-12T08:36:40.766Z,24.1
2019-03-12T08:37:30.978Z,24.1
2019-03-12T08:38:20.135Z,24
2019-03-12T08:39:11.214Z,23.9
2019-03-12T08:40:01.094Z,23.9
2019-03-12T08:41:05.707Z,23.8
2019-03-12T08:41:40.249Z,23.7
2019-03-12T08:42:30.646Z,23.6
2019-03-12T08:43:21.234Z,23.6
2019-03-12T08:44:10.798Z,23.4
2019-03-12T08:45:04.674Z,23.4
2019-03-12T08:45:58.122Z,23.6
2019-03-12T08:46:41.914Z,23.7
2019-03-12T08:47:30.819Z,23.9
2019-03-12T08:48:22.630Z,24.8
2019-03-12T08:49:12.047Z,25.4
2019-03-12T08:50:00.947Z,25.7
2019-03-12T08:50:51.625Z,25.9
2019-03-12T08:51:42.046Z,26.2
2019-03-12T08:52:31.819Z,26.4
2019-03-12T08:53:21.817Z,26.6
2019-03-12T08:54:11.846Z,26.9
2019-03-12T08:55:08.474Z,27.2
2019-03-12T08:55:52.273Z,27.5
2019-03-12T08:56:41.950Z,27.7
2019-03-12T08:57:32.375Z,27.9
2019-03-12T08:58:22.169Z,28.1
2019-03-12T08:59:11.376Z,28.3
2019-03-12T09:00:02.508Z,28.5
2019-03-12T09:00:51.209Z,28.5
2019-03-12T09:01:48.720Z,28.4
2019-03-12T09:02:31.896Z,28.3
2019-03-12T09:03:21.381Z,28.2
2019-03-12T09:04:12.619Z,28.1
2019-03-12T09:05:02.354Z,28
2019-03-12T09:05:52.068Z,27.9
2019-03-12T09:06:42.201Z,27.8
2019-03-12T09:07:30.824Z,27.6
2019-03-12T09:08:21.724Z,27.6
2019-03-12T09:09:12.340Z,27.1
2019-03-12T09:10:02.090Z,26.6
2019-03-12T09:10:52.715Z,26.3
2019-03-12T09:11:42.037Z,26.1
2019-03-12T09:12:32.854Z,25.9
2019-03-12T09:13:22.697Z,25.8
2019-03-12T09:14:11.634Z,25.7
2019-03-12T09:15:02.894Z,25.6
2019-03-12T09:15:52.624Z,25.5
2019-03-12T09:16:42.477Z,25.4
2019-03-12T09:17:32.307Z,25.3
2019-03-12T09:18:22.462Z,25.2
2019-03-12T09:19:12.679Z,25.1
2019-03-12T09:20:03.491Z,25.3
2019-03-12T09:20:52.819Z,25.3
2019-03-12T09:21:43.493Z,25.3
2019-03-12T09:22:34.029Z,25.2
2019-03-12T09:23:24.634Z,25.1
2019-03-12T09:24:14.275Z,25
2019-03-12T09:25:03.977Z,24.9
2019-03-12T09:25:53.251Z,24.9
2019-03-12T09:26:42.480Z,24.8
2019-03-12T09:27:34.342Z,24.6
2019-03-12T09:28:24.271Z,24.6
2019-03-12T09:29:14.163Z,24.5
2019-03-12T09:30:04.174Z,24.5
2019-03-12T09:30:53.261Z,24.6
2019-03-12T09:31:43.932Z,24.6
2019-03-12T09:32:34.457Z,24.6
2019-03-12T09:33:24.836Z,24.4
2019-03-12T09:34:14.626Z,24.4
2019-03-12T09:35:04.798Z,24.3
2019-03-12T09:35:53.863Z,24.3
2019-03-12T09:36:43.885Z,24.1
2019-03-12T09:37:34.580Z,24.1
2019-03-12T09:38:25.306Z,23.9
2019-03-12T09:39:14.665Z,23.9
2019-03-12T09:40:05.107Z,23.8
2019-03-12T09:40:54.226Z,24
2019-03-12T09:41:44.148Z,24
2019-03-12T09:42:34.678Z,24
2019-03-12T09:43:24.726Z,23.9
2019-03-12T09:44:15.690Z,23.8
2019-03-12T09:45:05.148Z,23.8
2019-03-12T09:45:55.742Z,23.7
2019-03-12T09:46:45.805Z,23.6
2019-03-12T09:47:34.950Z,23.5
2019-03-12T09:48:25.000Z,23.4
2019-03-12T09:49:15.217Z,23.4
2019-03-12T09:50:05.387Z,23.4
2019-03-12T09:50:55.537Z,23.7
2019-03-12T09:51:45.914Z,23.9
2019-03-12T09:52:35.662Z,24.6
2019-03-12T09:53:26.000Z,25.3
2019-03-12T09:54:15.522Z,25.6
2019-03-12T09:55:09.174Z,25.8
2019-03-12T09:55:56.990Z,26.1
2019-03-12T09:56:45.629Z,26.3
2019-03-12T09:57:35.845Z,26.5
2019-03-12T09:58:26.034Z,26.8
2019-03-12T09:59:16.118Z,27.1
2019-03-12T10:00:21.957Z,27.3
2019-03-12T10:00:55.927Z,27.6
2019-03-12T10:01:46.612Z,27.8
2019-03-12T10:02:36.196Z,27.9
2019-03-12T10:03:26.009Z,28.2
2019-03-12T10:04:17.259Z,28.4
2019-03-12T10:06:44.190Z,28.4
2019-03-12T10:07:33.682Z,28.3
2019-03-12T10:08:23.231Z,28.2
2019-03-12T10:09:13.322Z,28.1
2019-03-12T10:10:03.944Z,28
2019-03-12T10:10:53.111Z,27.9
2019-03-12T10:11:44.196Z,27.8
2019-03-12T10:12:34.804Z,27.6
2019-03-12T10:13:24.296Z,27.5
2019-03-12T10:14:12.764Z,27.4
2019-03-12T10:15:04.215Z,26.8
2019-03-12T10:15:54.187Z,26.4
2019-03-12T10:16:44.485Z,26.1
2019-03-12T10:17:35.178Z,25.9
2019-03-12T10:18:23.253Z,25.8
2019-03-12T10:19:14.868Z,25.6
2019-03-12T10:20:03.892Z,25.6
2019-03-12T10:20:55.217Z,25.4
2019-03-12T10:21:44.603Z,25.3
2019-03-12T10:22:34.381Z,25.2
2019-03-12T10:23:24.843Z,25.1
2019-03-12T10:24:14.773Z,25
2019-03-12T10:25:05.338Z,25
2019-03-12T10:25:54.608Z,25.2
2019-03-12T10:26:45.388Z,25.2
2019-03-12T10:27:34.870Z,25.1
2019-03-12T10:28:25.969Z,25.1
2019-03-12T10:29:15.121Z,24.9
2019-03-12T10:30:05.450Z,24.9
2019-03-12T10:30:54.843Z,24.8
2019-03-12T10:31:45.375Z,24.7
2019-03-12T10:32:36.234Z,24.6
2019-03-12T10:33:25.186Z,24.5
2019-03-12T10:34:28.757Z,24.4
2019-03-12T10:35:05.447Z,24.3
2019-03-12T10:35:57.415Z,24.5
2019-03-12T10:36:45.997Z,24.5
2019-03-12T10:37:35.770Z,24.4
2019-03-12T10:38:24.941Z,24.4
2019-03-12T10:39:15.847Z,24.3
2019-03-12T10:40:05.992Z,24.3
2019-03-12T10:40:56.365Z,24.1
2019-03-12T10:41:45.869Z,24.1
2019-03-12T10:42:35.350Z,24
2019-03-12T10:43:26.178Z,23.9
2019-03-12T10:44:16.017Z,23.8
2019-03-12T10:45:07.257Z,23.8
2019-03-12T10:45:56.613Z,23.8
2019-03-12T10:46:46.659Z,23.9
2019-03-12T10:47:36.731Z,23.9
2019-03-12T10:48:27.124Z,23.9
2019-03-12T10:49:16.390Z,23.8
2019-03-12T10:50:06.431Z,23.7
2019-03-12T10:50:56.989Z,23.6
2019-03-12T10:51:46.852Z,23.6
2019-03-12T10:52:36.259Z,23.5
2019-03-12T10:53:26.659Z,23.4
2019-03-12T10:54:16.526Z,23.4
2019-03-12T10:55:22.853Z,23.5
2019-03-12T10:55:57.041Z,23.7
2019-03-12T10:56:47.433Z,23.9
2019-03-12T10:57:36.364Z,24.6
2019-03-12T10:58:28.189Z,25.4
2019-03-12T10:59:16.298Z,25.5
2019-03-12T11:00:07.341Z,25.7
2019-03-12T11:00:57.009Z,25.9
2019-03-12T11:01:47.759Z,26.2
2019-03-12T11:02:40.454Z,26.4
2019-03-12T11:03:27.964Z,26.9
2019-03-12T11:04:18.583Z,27.3
2019-03-12T11:05:07.313Z,27
2019-03-12T11:05:56.928Z,26.3
2019-03-12T11:06:46.791Z,25.6
2019-03-12T11:07:37.946Z,24.9
2019-03-12T11:08:27.192Z,23.9
2019-03-12T11:09:18.026Z,23.4
2019-03-12T11:10:08.123Z,23.5
2019-03-12T11:10:56.916Z,24.1
2019-03-12T11:11:48.161Z,24.9
2019-03-12T11:12:38.374Z,25.5
2019-03-12T11:13:28.331Z,25.8
2019-03-12T11:14:17.326Z,26
2019-03-12T11:15:08.478Z,26.2
2019-03-12T11:15:59.100Z,26.4
2019-03-12T11:16:48.564Z,26.7
2019-03-12T11:17:53.383Z,27
2019-03-12T11:18:27.937Z,27.3
2019-03-12T11:19:19.093Z,27.5
2019-03-12T11:20:09.105Z,27.7
2019-03-12T11:21:01.781Z,27.9